^^
Station Historical Data
 
Daily Summary for December 19, 2014 Units:  English    Metric   Both
« Previous Day
Next Day »
Daily Weekly Monthly Yearly Custom
  Current: High: Low: Average:
Temperature: 32.8 °F 41.0 °F 32.8 °F 36 °F
Dew Point: 24.4 °F 29.7 °F 24.4 °F 27.3 °F
Humidity: 71% 77% 59% 71%
Wind Speed: 0.0mph 18.4mph 1.2mph 8.2mph
Wind Gust: 0.0mph 18.4mph - -
WindCalm - - WNW
Pressure: 30.14 in 30.15 in 30.02 in -
Precipitation: 0.00 in      
Historical Graphs
 
 
Tabular Data for December 19, 2014
Time Temperature Dew Point Pressure Wind Wind Speed Wind Gust Humidity Rainfall Rate (Hourly)
00:03 34.3 °F 27.5 °F 30.03 in WNW 9.2 mph 9.2 mph 76% 0.00 in
00:08 34.3 °F 27.5 °F 30.03 in NW 4.6 mph 4.6 mph 76% 0.00 in
00:13 34.3 °F 27.5 °F 30.03 in West 3.5 mph 3.5 mph 76% 0.00 in
00:18 34.3 °F 27.5 °F 30.03 in West 4.6 mph 4.6 mph 76% 0.00 in
00:23 34.2 °F 27.7 °F 30.03 in WNW 6.9 mph 6.9 mph 77% 0.00 in
00:28 34.2 °F 27.4 °F 30.03 in North 11.5 mph 11.5 mph 76% 0.00 in
00:33 34.2 °F 27.4 °F 30.03 in West 4.6 mph 4.6 mph 76% 0.00 in
00:38 34.2 °F 27.4 °F 30.03 in NNW 10.4 mph 10.4 mph 76% 0.00 in
00:43 34.2 °F 27.4 °F 30.03 in WNW 4.6 mph 4.6 mph 76% 0.00 in
00:48 34.2 °F 27.7 °F 30.03 in NNW 4.6 mph 4.6 mph 77% 0.00 in
00:53 34.2 °F 27.7 °F 30.03 in WNW 5.8 mph 5.8 mph 77% 0.00 in
00:58 34.2 °F 27.7 °F 30.03 in NW 3.5 mph 3.5 mph 77% 0.00 in
01:03 34.2 °F 27.7 °F 30.03 in SW 4.0 mph 4.0 mph 77% 0.00 in
01:08 34.2 °F 27.7 °F 30.03 in NW 11.5 mph 11.5 mph 77% 0.00 in
01:13 34.2 °F 27.7 °F 30.03 in West 10.4 mph 10.4 mph 77% 0.00 in
01:18 34.2 °F 27.7 °F 30.02 in NW 9.2 mph 9.2 mph 77% 0.00 in
01:23 34.2 °F 27.7 °F 30.03 in NW 3.5 mph 3.5 mph 77% 0.00 in
01:28 34.1 °F 27.6 °F 30.02 in NNW 11.5 mph 11.5 mph 77% 0.00 in
01:33 34.1 °F 27.6 °F 30.03 in NNW 5.8 mph 5.8 mph 77% 0.00 in
01:38 34.1 °F 27.6 °F 30.03 in NW 8.1 mph 8.1 mph 77% 0.00 in
01:43 34.1 °F 27.6 °F 30.03 in West 9.0 mph 9.0 mph 77% 0.00 in
01:48 34.1 °F 27.6 °F 30.03 in NNE 3.5 mph 3.5 mph 77% 0.00 in
01:53 34.1 °F 27.6 °F 30.03 in NW 9.2 mph 9.2 mph 77% 0.00 in
01:58 34.1 °F 27.6 °F 30.03 in WNW 11.5 mph 11.5 mph 77% 0.00 in
02:03 34.1 °F 27.6 °F 30.03 in NW 6.9 mph 6.9 mph 77% 0.00 in
02:08 34.1 °F 27.6 °F 30.04 in West 6.9 mph 6.9 mph 77% 0.00 in
02:13 34.1 °F 27.6 °F 30.04 in NW 2.3 mph 2.3 mph 77% 0.00 in
02:18 34.0 °F 27.5 °F 30.04 in SW 6.0 mph 6.0 mph 77% 0.00 in
02:23 34.0 °F 27.5 °F 30.04 in NW 7.0 mph 7.0 mph 77% 0.00 in
02:28 34.0 °F 27.5 °F 30.04 in West 5.8 mph 5.8 mph 77% 0.00 in
02:33 34.0 °F 27.5 °F 30.04 in WSW 4.6 mph 4.6 mph 77% 0.00 in
02:38 34.0 °F 27.5 °F 30.04 in South 4.6 mph 4.6 mph 77% 0.00 in
02:43 34.0 °F 27.5 °F 30.04 in NW 9.2 mph 9.2 mph 77% 0.00 in
02:48 34.0 °F 27.5 °F 30.04 in WSW 2.3 mph 2.3 mph 77% 0.00 in
02:53 34.0 °F 27.5 °F 30.03 in SSW 2.3 mph 2.3 mph 77% 0.00 in
02:58 34.0 °F 27.5 °F 30.03 in NW 2.3 mph 2.3 mph 77% 0.00 in
03:03 33.9 °F 27.4 °F 30.03 in NNW 9.2 mph 9.2 mph 77% 0.00 in
03:08 34.0 °F 27.2 °F 30.04 in NE 4.6 mph 4.6 mph 76% 0.00 in
03:13 34.0 °F 27.2 °F 30.04 in NNW 3.5 mph 3.5 mph 76% 0.00 in
03:18 34.0 °F 27.2 °F 30.04 in WSW 5.8 mph 5.8 mph 76% 0.00 in
03:23 34.0 °F 27.2 °F 30.04 in NW 12.7 mph 12.7 mph 76% 0.00 in
03:28 34.0 °F 27.2 °F 30.04 in NW 11.5 mph 11.5 mph 76% 0.00 in
03:33 34.1 °F 27.3 °F 30.04 in NW 6.9 mph 6.9 mph 76% 0.00 in
03:38 34.1 °F 27.3 °F 30.04 in NNW 10.0 mph 10.0 mph 76% 0.00 in
03:43 34.1 °F 27.3 °F 30.04 in SSW 9.2 mph 9.2 mph 76% 0.00 in
03:48 34.1 °F 27.3 °F 30.04 in NNW 10.4 mph 10.4 mph 76% 0.00 in
03:53 34.1 °F 27.3 °F 30.04 in NW 6.9 mph 6.9 mph 76% 0.00 in
03:58 34.1 °F 27.3 °F 30.03 in WNW 6.9 mph 6.9 mph 76% 0.00 in
04:03 34.1 °F 27.3 °F 30.03 in NW 7.0 mph 7.0 mph 76% 0.00 in
04:08 34.1 °F 27.3 °F 30.03 in WNW 8.1 mph 8.1 mph 76% 0.00 in
04:13 34.2 °F 27.4 °F 30.03 in North 6.9 mph 6.9 mph 76% 0.00 in
04:18 34.1 °F 27.3 °F 30.03 in WNW 3.5 mph 3.5 mph 76% 0.00 in
04:23 34.1 °F 27.3 °F 30.03 in SW 12.7 mph 12.7 mph 76% 0.00 in
04:28 34.1 °F 27.3 °F 30.03 in SSW 5.0 mph 5.0 mph 76% 0.00 in
04:33 34.1 °F 27.3 °F 30.03 in North 6.9 mph 6.9 mph 76% 0.00 in
04:38 34.1 °F 27.3 °F 30.03 in NW 3.5 mph 3.5 mph 76% 0.00 in
04:43 34.2 °F 27.4 °F 30.03 in West 4.6 mph 4.6 mph 76% 0.00 in
04:48 34.1 °F 27.3 °F 30.03 in NNW 11.0 mph 11.0 mph 76% 0.00 in
04:53 34.1 °F 27.3 °F 30.03 in NW 6.9 mph 6.9 mph 76% 0.00 in
04:58 34.1 °F 27.3 °F 30.03 in NW 4.6 mph 4.6 mph 76% 0.00 in
05:03 34.1 °F 27.3 °F 30.03 in NNE 4.6 mph 4.6 mph 76% 0.00 in
05:08 34.2 °F 27.4 °F 30.03 in NNW 9.2 mph 9.2 mph 76% 0.00 in
05:13 34.2 °F 27.4 °F 30.03 in WNW 10.4 mph 10.4 mph 76% 0.00 in
05:18 34.2 °F 27.1 °F 30.03 in WSW 9.2 mph 9.2 mph 75% 0.00 in
05:23 34.3 °F 27.5 °F 30.03 in WNW 5.8 mph 5.8 mph 76% 0.00 in
05:28 34.3 °F 27.2 °F 30.03 in NNW 5.8 mph 5.8 mph 75% 0.00 in
05:33 34.3 °F 27.2 °F 30.03 in NW 3.5 mph 3.5 mph 75% 0.00 in
05:38 34.3 °F 27.5 °F 30.03 in NNW 8.1 mph 8.1 mph 76% 0.00 in
05:43 34.3 °F 27.2 °F 30.03 in NNW 6.0 mph 6.0 mph 75% 0.00 in
05:48 34.3 °F 27.2 °F 30.03 in WNW 9.2 mph 9.2 mph 75% 0.00 in
05:53 34.4 °F 27.3 °F 30.03 in NW 6.0 mph 6.0 mph 75% 0.00 in
05:58 34.4 °F 27.3 °F 30.03 in NNW 9.2 mph 9.2 mph 75% 0.00 in
06:03 34.4 °F 27.3 °F 30.03 in NNW 9.2 mph 9.2 mph 75% 0.00 in
06:08 34.4 °F 27.3 °F 30.04 in West 9.2 mph 9.2 mph 75% 0.00 in
06:13 34.4 °F 27.3 °F 30.03 in NNW 9.2 mph 9.2 mph 75% 0.00 in
06:18 34.4 °F 27.3 °F 30.04 in NW 11.5 mph 11.5 mph 75% 0.00 in
06:23 34.4 °F 27.3 °F 30.04 in NNW 5.8 mph 5.8 mph 75% 0.00 in
06:28 34.4 °F 27.3 °F 30.04 in West 9.2 mph 9.2 mph 75% 0.00 in
06:33 34.4 °F 27.0 °F 30.05 in West 8.1 mph 8.1 mph 74% 0.00 in
06:38 34.4 °F 27.0 °F 30.05 in NW 10.4 mph 10.4 mph 74% 0.00 in
06:43 34.4 °F 27.0 °F 30.04 in SSW 18.4 mph 18.4 mph 74% 0.00 in
06:48 34.4 °F 27.0 °F 30.05 in NW 11.5 mph 11.5 mph 74% 0.00 in
06:53 34.4 °F 27.3 °F 30.05 in NNW 4.6 mph 4.6 mph 75% 0.00 in
06:58 34.4 °F 27.3 °F 30.05 in NW 5.8 mph 5.8 mph 75% 0.00 in
07:03 34.4 °F 27.3 °F 30.05 in NNW 5.8 mph 5.8 mph 75% 0.00 in
07:08 34.4 °F 27.3 °F 30.05 in NW 11.5 mph 11.5 mph 75% 0.00 in
07:13 34.5 °F 27.4 °F 30.05 in NNW 8.1 mph 8.1 mph 75% 0.00 in
07:18 34.5 °F 27.4 °F 30.06 in NNW 6.9 mph 6.9 mph 75% 0.00 in
07:23 34.6 °F 27.5 °F 30.06 in NNW 6.9 mph 6.9 mph 75% 0.00 in
07:28 34.6 °F 27.5 °F 30.06 in WNW 8.1 mph 8.1 mph 75% 0.00 in
07:33 34.5 °F 27.4 °F 30.06 in SW 6.9 mph 6.9 mph 75% 0.00 in
07:38 34.5 °F 27.4 °F 30.06 in WNW 3.5 mph 3.5 mph 75% 0.00 in
07:43 34.5 °F 27.4 °F 30.06 in West 4.6 mph 4.6 mph 75% 0.00 in
07:48 34.5 °F 27.4 °F 30.06 in WNW 9.2 mph 9.2 mph 75% 0.00 in
07:53 34.5 °F 27.4 °F 30.06 in NW 4.6 mph 4.6 mph 75% 0.00 in
07:58 34.6 °F 27.5 °F 30.07 in WSW 8.1 mph 8.1 mph 75% 0.00 in
08:03 34.7 °F 27.6 °F 30.07 in North 9.2 mph 9.2 mph 75% 0.00 in
08:08 34.7 °F 27.6 °F 30.07 in NNE 11.5 mph 11.5 mph 75% 0.00 in
08:13 34.7 °F 27.6 °F 30.07 in West 9.0 mph 9.0 mph 75% 0.00 in
08:18 34.8 °F 27.7 °F 30.07 in NW 10.4 mph 10.4 mph 75% 0.00 in
08:23 34.8 °F 27.7 °F 30.07 in West 4.6 mph 4.6 mph 75% 0.00 in
08:28 34.9 °F 27.8 °F 30.07 in WSW 6.0 mph 6.0 mph 75% 0.00 in
08:33 34.9 °F 27.8 °F 30.08 in South 2.3 mph 2.3 mph 75% 0.00 in
08:38 35.0 °F 27.9 °F 30.08 in SSW 4.6 mph 4.6 mph 75% 0.00 in
08:43 35.0 °F 27.9 °F 30.08 in SSE 9.2 mph 9.2 mph 75% 0.00 in
08:48 35.1 °F 28.0 °F 30.08 in South 5.8 mph 5.8 mph 75% 0.00 in
08:53 35.1 °F 28.0 °F 30.09 in NW 4.6 mph 4.6 mph 75% 0.00 in
08:58 35.1 °F 28.0 °F 30.09 in WSW 9.2 mph 9.2 mph 75% 0.00 in
09:03 35.2 °F 27.7 °F 30.09 in NNW 8.1 mph 8.1 mph 74% 0.00 in
09:08 35.3 °F 28.2 °F 30.09 in WNW 4.6 mph 4.6 mph 75% 0.00 in
09:13 35.3 °F 27.8 °F 30.09 in NNE 5.8 mph 5.8 mph 74% 0.00 in
09:18 35.5 °F 28.0 °F 30.09 in NW 10.4 mph 10.4 mph 74% 0.00 in
09:23 35.6 °F 28.1 °F 30.09 in NW 11.5 mph 11.5 mph 74% 0.00 in
09:28 35.7 °F 28.2 °F 30.09 in WNW 11.5 mph 11.5 mph 74% 0.00 in
09:33 35.7 °F 28.2 °F 30.09 in NW 10.4 mph 10.4 mph 74% 0.00 in
09:38 35.9 °F 28.1 °F 30.09 in NW 15.0 mph 15.0 mph 73% 0.00 in
09:43 36.0 °F 27.8 °F 30.09 in SW 12.7 mph 12.7 mph 72% 0.00 in
09:48 36.1 °F 27.9 °F 30.09 in WSW 10.4 mph 10.4 mph 72% 0.00 in
09:53 36.2 °F 28.4 °F 30.09 in North 5.8 mph 5.8 mph 73% 0.00 in
09:58 36.2 °F 28.0 °F 30.09 in WNW 11.5 mph 11.5 mph 72% 0.00 in
10:03 36.4 °F 28.2 °F 30.09 in NW 10.4 mph 10.4 mph 72% 0.00 in
10:08 36.4 °F 28.2 °F 30.09 in NW 8.1 mph 8.1 mph 72% 0.00 in
10:13 36.5 °F 28.3 °F 30.09 in NW 9.2 mph 9.2 mph 72% 0.00 in
10:18 36.7 °F 28.5 °F 30.09 in NNW 10.4 mph 10.4 mph 72% 0.00 in
10:23 36.7 °F 28.2 °F 30.09 in NW 11.5 mph 11.5 mph 71% 0.00 in
10:28 36.7 °F 28.2 °F 30.08 in NW 6.9 mph 6.9 mph 71% 0.00 in
10:33 36.8 °F 28.6 °F 30.08 in NW 9.2 mph 9.2 mph 72% 0.00 in
10:38 36.9 °F 28.4 °F 30.09 in NNW 11.5 mph 11.5 mph 71% 0.00 in
10:43 36.9 °F 28.4 °F 30.09 in NW 9.2 mph 9.2 mph 71% 0.00 in
10:48 37.0 °F 28.1 °F 30.09 in NW 8.1 mph 8.1 mph 70% 0.00 in
10:53 37.1 °F 28.2 °F 30.08 in NNW 13.8 mph 13.8 mph 70% 0.00 in
10:58 37.1 °F 27.9 °F 30.08 in NNW 11.5 mph 11.5 mph 69% 0.00 in
11:03 37.1 °F 28.2 °F 30.08 in NNW 12.7 mph 12.7 mph 70% 0.00 in
11:08 37.3 °F 28.4 °F 30.07 in NNW 6.9 mph 6.9 mph 70% 0.00 in
11:13 37.3 °F 28.4 °F 30.07 in NW 9.2 mph 9.2 mph 70% 0.00 in
11:18 37.4 °F 28.5 °F 30.07 in NW 3.5 mph 3.5 mph 70% 0.00 in
11:23 37.5 °F 27.9 °F 30.07 in NNW 9.2 mph 9.2 mph 68% 0.00 in
11:28 37.7 °F 27.7 °F 30.06 in NW 11.5 mph 11.5 mph 67% 0.00 in
11:33 37.9 °F 27.9 °F 30.06 in NNW 10.4 mph 10.4 mph 67% 0.00 in
11:38 38.3 °F 27.9 °F 30.06 in NW 10.0 mph 10.0 mph 66% 0.00 in
11:43 38.3 °F 27.9 °F 30.06 in NW 8.1 mph 8.1 mph 66% 0.00 in
11:48 38.2 °F 27.8 °F 30.07 in NW 6.0 mph 6.0 mph 66% 0.00 in
11:53 38.2 °F 27.5 °F 30.06 in NNW 11.5 mph 11.5 mph 65% 0.00 in
11:58 38.3 °F 27.6 °F 30.06 in NW 10.4 mph 10.4 mph 65% 0.00 in
12:03 38.3 °F 27.6 °F 30.06 in North 10.4 mph 10.4 mph 65% 0.00 in
12:08 38.7 °F 27.9 °F 30.07 in NW 16.1 mph 16.1 mph 65% 0.00 in
12:13 39.1 °F 28.3 °F 30.06 in NW 6.0 mph 6.0 mph 65% 0.00 in
12:18 39.3 °F 28.5 °F 30.07 in NW 8.1 mph 8.1 mph 65% 0.00 in
12:23 39.4 °F 28.6 °F 30.07 in NW 10.0 mph 10.0 mph 65% 0.00 in
12:28 39.7 °F 28.5 °F 30.07 in WNW 11.0 mph 11.0 mph 64% 0.00 in
12:33 39.7 °F 28.1 °F 30.07 in WNW 11.5 mph 11.5 mph 63% 0.00 in
12:38 39.7 °F 28.1 °F 30.07 in North 11.5 mph 11.5 mph 63% 0.00 in
12:43 39.9 °F 28.3 °F 30.07 in North 11.5 mph 11.5 mph 63% 0.00 in
12:48 40.2 °F 28.2 °F 30.07 in NNW 6.9 mph 6.9 mph 62% 0.00 in
12:53 40.7 °F 28.7 °F 30.06 in NW 11.5 mph 11.5 mph 62% 0.00 in
12:58 41.0 °F 29.7 °F 30.06 in South 6.9 mph 6.9 mph 64% 0.00 in
13:03 41.0 °F 28.6 °F 30.06 in NW 13.8 mph 13.8 mph 61% 0.00 in
13:08 40.6 °F 28.6 °F 30.06 in NW 13.0 mph 13.0 mph 62% 0.00 in
13:13 40.5 °F 28.5 °F 30.06 in North 9.2 mph 9.2 mph 62% 0.00 in
13:18 40.5 °F 28.1 °F 30.06 in North 9.2 mph 9.2 mph 61% 0.00 in
13:23 40.5 °F 28.5 °F 30.06 in NNW 8.0 mph 8.0 mph 62% 0.00 in
13:28 40.4 °F 28.0 °F 30.07 in NW 11.5 mph 11.5 mph 61% 0.00 in
13:33 40.3 °F 27.9 °F 30.06 in NW 11.5 mph 11.5 mph 61% 0.00 in
13:38 39.9 °F 27.9 °F 30.06 in NNW 10.4 mph 10.4 mph 62% 0.00 in
13:43 39.5 °F 27.5 °F 30.06 in NNW 10.4 mph 10.4 mph 62% 0.00 in
13:48 39.4 °F 27.8 °F 30.06 in NW 11.5 mph 11.5 mph 63% 0.00 in
13:53 39.7 °F 27.7 °F 30.06 in NNW 12.7 mph 12.7 mph 62% 0.00 in
13:58 39.9 °F 27.9 °F 30.06 in NNW 11.5 mph 11.5 mph 62% 0.00 in
14:03 40.2 °F 27.8 °F 30.06 in NNW 9.0 mph 9.0 mph 61% 0.00 in
14:08 40.2 °F 27.8 °F 30.06 in WNW 8.1 mph 8.1 mph 61% 0.00 in
14:13 40.5 °F 28.5 °F 30.07 in NNE 8.1 mph 8.1 mph 62% 0.00 in
14:18 40.5 °F 28.1 °F 30.07 in NNW 12.7 mph 12.7 mph 61% 0.00 in
14:23 40.1 °F 27.3 °F 30.07 in NNW 11.5 mph 11.5 mph 60% 0.00 in
14:28 40.0 °F 27.6 °F 30.07 in NNW 11.5 mph 11.5 mph 61% 0.00 in
14:33 40.0 °F 27.6 °F 30.07 in North 9.2 mph 9.2 mph 61% 0.00 in
14:38 40.1 °F 27.7 °F 30.07 in NNW 10.4 mph 10.4 mph 61% 0.00 in
14:43 39.9 °F 26.7 °F 30.07 in NW 18.4 mph 18.4 mph 59% 0.00 in
14:48 39.7 °F 26.9 °F 30.07 in North 11.5 mph 11.5 mph 60% 0.00 in
14:53 39.6 °F 27.2 °F 30.07 in NNW 11.5 mph 11.5 mph 61% 0.00 in
14:58 39.4 °F 27.1 °F 30.07 in NE 6.0 mph 6.0 mph 61% 0.00 in
15:03 39.5 °F 27.2 °F 30.07 in NNW 9.0 mph 9.0 mph 61% 0.00 in
15:08 39.6 °F 27.2 °F 30.08 in WNW 11.5 mph 11.5 mph 61% 0.00 in
15:13 39.6 °F 27.2 °F 30.07 in North 9.2 mph 9.2 mph 61% 0.00 in
15:18 39.4 °F 27.1 °F 30.08 in NNW 8.1 mph 8.1 mph 61% 0.00 in
15:23 39.3 °F 27.0 °F 30.08 in NNW 11.0 mph 11.0 mph 61% 0.00 in
15:28 38.9 °F 27.0 °F 30.08 in North 8.1 mph 8.1 mph 62% 0.00 in
15:33 38.8 °F 26.9 °F 30.09 in WSW 11.5 mph 11.5 mph 62% 0.00 in
15:38 38.7 °F 27.2 °F 30.09 in WNW 10.4 mph 10.4 mph 63% 0.00 in
15:43 38.6 °F 26.7 °F 30.09 in NW 5.8 mph 5.8 mph 62% 0.00 in
15:48 38.6 °F 27.1 °F 30.09 in NNW 8.1 mph 8.1 mph 63% 0.00 in
15:53 38.4 °F 26.5 °F 30.10 in South 12.7 mph 12.7 mph 62% 0.00 in
15:58 38.3 °F 26.4 °F 30.09 in WSW 8.1 mph 8.1 mph 62% 0.00 in
16:03 38.1 °F 26.6 °F 30.10 in NW 8.1 mph 8.1 mph 63% 0.00 in
16:08 38.0 °F 26.5 °F 30.10 in West 9.2 mph 9.2 mph 63% 0.00 in
16:13 37.9 °F 26.4 °F 30.10 in NW 5.8 mph 5.8 mph 63% 0.00 in
16:18 37.8 °F 26.3 °F 30.10 in NW 6.9 mph 6.9 mph 63% 0.00 in
16:23 37.5 °F 26.0 °F 30.10 in NNW 7.0 mph 7.0 mph 63% 0.00 in
16:28 37.2 °F 26.1 °F 30.11 in NW 5.8 mph 5.8 mph 64% 0.00 in
16:33 36.8 °F 26.1 °F 30.11 in WNW 8.1 mph 8.1 mph 65% 0.00 in
16:38 36.5 °F 25.8 °F 30.11 in North 10.4 mph 10.4 mph 65% 0.00 in
16:43 36.3 °F 25.7 °F 30.12 in NNW 11.5 mph 11.5 mph 65% 0.00 in
16:48 36.1 °F 25.5 °F 30.12 in NNW 3.5 mph 3.5 mph 65% 0.00 in
16:53 35.9 °F 25.6 °F 30.12 in NW 7.0 mph 7.0 mph 66% 0.00 in
16:58 35.7 °F 25.4 °F 30.12 in NNW 6.9 mph 6.9 mph 66% 0.00 in
17:03 35.5 °F 25.6 °F 30.13 in NW 6.9 mph 6.9 mph 67% 0.00 in
17:08 35.3 °F 25.4 °F 30.13 in NNW 12.7 mph 12.7 mph 67% 0.00 in
17:13 35.1 °F 25.2 °F 30.14 in North 6.9 mph 6.9 mph 67% 0.00 in
17:18 35.0 °F 25.5 °F 30.14 in NNW 6.9 mph 6.9 mph 68% 0.00 in
17:23 34.9 °F 25.4 °F 30.14 in WSW 4.6 mph 4.6 mph 68% 0.00 in
17:28 34.8 °F 25.3 °F 30.14 in NNW 7.0 mph 7.0 mph 68% 0.00 in
17:33 34.7 °F 25.2 °F 30.14 in NW 5.0 mph 5.0 mph 68% 0.00 in
17:38 34.6 °F 25.1 °F 30.14 in North 6.9 mph 6.9 mph 68% 0.00 in
17:43 34.6 °F 25.1 °F 30.14 in NW 8.1 mph 8.1 mph 68% 0.00 in
17:48 34.5 °F 25.4 °F 30.14 in NW 4.0 mph 4.0 mph 69% 0.00 in
17:53 34.4 °F 25.3 °F 30.14 in WNW 7.0 mph 7.0 mph 69% 0.00 in
17:58 34.4 °F 25.3 °F 30.14 in NW 5.8 mph 5.8 mph 69% 0.00 in
18:03 34.4 °F 25.3 °F 30.14 in NW 4.6 mph 4.6 mph 69% 0.00 in
18:08 34.4 °F 25.3 °F 30.15 in WSW 4.6 mph 4.6 mph 69% 0.00 in
18:13 34.4 °F 25.3 °F 30.14 in NW 2.3 mph 2.3 mph 69% 0.00 in
18:18 34.3 °F 25.2 °F 30.14 in WNW 4.6 mph 4.6 mph 69% 0.00 in
18:23 34.2 °F 25.4 °F 30.14 in WNW 4.6 mph 4.6 mph 70% 0.00 in
18:28 34.1 °F 25.3 °F 30.14 in WNW 1.2 mph 1.2 mph 70% 0.00 in
18:33 33.9 °F 25.1 °F 30.14 in WNW 1.2 mph   70% 0.00 in
18:38 33.7 °F 25.0 °F 30.14 in Calm     70% 0.00 in
18:43 33.6 °F 24.9 °F 30.14 in Calm     70% 0.00 in
18:48 33.4 °F 24.7 °F 30.14 in Calm   0.1 mph 70% 0.00 in
18:53 33.2 °F 24.8 °F 30.14 in Calm     71% 0.00 in
18:58 33.0 °F 24.6 °F 30.14 in Calm     71% 0.00 in
19:03 32.8 °F 24.4 °F 30.14 in Calm     71% 0.00 in
Mechanicsburg,PA USA
Compliments of Weather Underground